Time,TemperatureF,DewpointF,PressureIn,WindDirection,WindDirectionDegrees,WindSpeedMPH,WindSpeedGustMPH,Humidity,HourlyPrecipIn,Conditions,Clouds,dailyrainin,SolarRadiationWatts/m^2,SoftwareType,DateUTC
2013-01-21 00:00:00,64.9,62.5,30.07,North,11,0.0,1.0,92,0.00,,---,0.00,0.00,VWS V14.00,2013-01-21 05:00:00,
2013-01-21 00:30:00,64.9,62.5,30.06,North,11,0.0,0.0,92,0.00,,---,0.00,0.00,VWS V14.00,2013-01-21 05:30:00,
2013-01-21 01:00:00,64.7,62.3,30.05,North,11,0.0,1.0,92,0.00,,---,0.00,0.00,VWS V14.00,2013-01-21 06:00:00,
2013-01-21 01:30:00,64.2,61.8,30.05,North,11,0.0,2.0,92,0.00,,---,0.00,0.00,VWS V14.00,2013-01-21 06:30:00,
2013-01-21 02:00:00,63.8,61.4,30.05,North,11,0.0,0.0,92,0.00,,---,0.00,0.00,VWS V14.00,2013-01-21 07:00:00,
2013-01-21 02:30:00,63.6,61.2,30.04,North,11,0.0,2.0,92,0.00,,---,0.00,0.00,VWS V14.00,2013-01-21 07:30:00,
2013-01-21 03:00:00,63.6,61.2,30.03,North,11,0.0,2.0,92,0.00,,---,0.00,0.00,VWS V14.00,2013-01-21 08:00:00,
2013-01-21 03:30:00,63.6,61.2,30.04,North,11,0.0,1.0,92,0.00,,---,0.00,0.00,VWS V14.00,2013-01-21 08:30:00,
2013-01-21 04:00:00,63.6,61.2,30.03,North,11,0.0,0.0,92,0.00,,---,0.00,0.00,VWS V14.00,2013-01-21 09:00:00,
2013-01-21 04:30:00,63.7,61.3,30.02,North,11,0.0,0.0,92,0.00,,---,0.00,0.00,VWS V14.00,2013-01-21 09:30:00,
2013-01-21 05:00:00,63.7,61.3,30.02,North,11,0.0,0.0,92,0.00,,---,0.00,0.00,VWS V14.00,2013-01-21 10:00:00,
2013-01-21 05:30:00,63.6,61.2,30.02,North,11,0.0,0.0,92,0.00,,---,0.00,0.00,VWS V14.00,2013-01-21 10:30:00,
2013-01-21 06:00:00,63.5,61.1,30.02,North,11,0.0,1.0,92,0.00,,---,0.00,0.00,VWS V14.00,2013-01-21 11:00:00,
2013-01-21 06:30:00,63.5,61.1,30.03,North,11,0.0,0.0,92,0.00,,---,0.00,0.00,VWS V14.00,2013-01-21 11:30:00,
2013-01-21 07:00:00,63.7,61.3,30.04,North,11,0.0,0.0,92,0.00,,---,0.00,5.00,VWS V14.00,2013-01-21 12:00:00,
2013-01-21 07:30:00,64.0,61.9,30.04,North,11,0.0,0.0,93,0.00,,---,0.00,49.00,VWS V14.00,2013-01-21 12:30:00,
2013-01-21 08:00:00,65.0,62.6,30.06,North,11,0.0,1.0,92,0.00,,---,0.00,67.00,VWS V14.00,2013-01-21 13:00:00,
2013-01-21 08:30:00,66.4,64.0,30.07,North,11,0.0,0.0,92,0.00,,---,0.00,74.00,VWS V14.00,2013-01-21 13:30:00,
2013-01-21 09:00:00,67.7,65.3,30.07,North,11,0.0,0.0,92,0.00,,---,0.00,204.00,VWS V14.00,2013-01-21 14:00:00,
2013-01-21 09:30:00,69.8,67.4,30.08,North,11,0.0,1.0,92,0.00,,---,0.00,255.00,VWS V14.00,2013-01-21 14:30:00,
2013-01-21 10:00:00,71.2,67.8,30.08,North,11,0.0,2.0,89,0.00,,---,0.00,135.00,VWS V14.00,2013-01-21 15:00:00,
2013-01-21 10:30:00,71.9,67.8,30.08,North,11,0.0,1.0,87,0.00,,---,0.00,105.00,VWS V14.00,2013-01-21 15:30:00,
2013-01-21 11:00:00,72.2,68.1,30.06,North,11,0.0,2.0,87,0.00,,---,0.00,554.00,VWS V14.00,2013-01-21 16:00:00,
2013-01-21 11:30:00,75.0,69.1,30.06,North,11,0.0,4.0,82,0.00,,---,0.00,413.00,VWS V14.00,2013-01-21 16:30:00,
2013-01-21 12:00:00,76.5,68.4,30.03,North,11,1.0,4.0,76,0.00,,---,0.00,661.00,VWS V14.00,2013-01-21 17:00:00,
2013-01-21 12:30:00,78.8,68.6,30.02,NNE,12,1.0,5.0,71,0.00,,---,0.00,772.00,VWS V14.00,2013-01-21 17:30:00,
2013-01-21 13:00:00,78.7,66.8,30.01,NNE,12,0.0,3.0,67,0.00,,---,0.00,385.00,VWS V14.00,2013-01-21 18:00:00,
2013-01-21 13:30:00,77.6,67.9,29.99,NNE,12,0.0,4.0,72,0.00,,---,0.00,443.00,VWS V14.00,2013-01-21 18:30:00,
2013-01-21 14:00:00,76.0,68.3,29.98,North,11,1.0,3.0,77,0.00,,---,0.00,225.00,VWS V14.00,2013-01-21 19:00:00,
2013-01-21 14:30:00,74.8,68.2,29.97,North,11,1.0,4.0,80,0.00,,---,0.00,225.00,VWS V14.00,2013-01-21 19:30:00,
2013-01-21 15:00:00,73.6,67.4,29.97,North,11,1.0,4.0,81,0.00,,---,0.00,76.00,VWS V14.00,2013-01-21 20:00:00,
2013-01-21 15:30:00,72.0,66.9,29.97,North,11,0.0,4.0,84,0.00,,---,0.00,56.00,VWS V14.00,2013-01-21 20:30:00,
2013-01-21 16:00:00,69.7,66.0,29.99,North,353,0.0,6.0,88,0.40,,---,0.18,25.00,VWS V14.00,2013-01-21 21:00:00,
2013-01-21 16:30:00,67.5,64.5,30.00,WNW,287,1.0,8.0,90,0.27,,---,0.25,19.00,VWS V14.00,2013-01-21 21:30:00,
2013-01-21 17:00:00,66.8,64.1,30.01,West,281,0.0,6.0,91,0.00,,---,0.28,18.00,VWS V14.00,2013-01-21 22:00:00,
2013-01-21 17:30:00,66.4,64.0,30.01,West,276,0.0,7.0,92,0.00,,---,0.28,0.00,VWS V14.00,2013-01-21 22:30:00,
2013-01-21 18:00:00,66.0,63.6,30.01,West,278,2.0,6.0,92,0.00,,---,0.28,0.00,VWS V14.00,2013-01-21 23:00:00,
2013-01-21 18:30:00,65.2,62.8,30.01,NW,306,0.0,7.0,92,0.00,,---,0.28,0.00,VWS V14.00,2013-01-21 23:30:00,
2013-01-21 19:00:00,64.8,62.4,30.01,NW,306,0.0,4.0,92,0.00,,---,0.28,0.00,VWS V14.00,2013-01-22 00:00:00,
2013-01-21 19:30:00,64.7,62.3,30.01,NW,306,0.0,2.0,92,0.00,,---,0.28,0.00,VWS V14.00,2013-01-22 00:30:00,
2013-01-21 20:00:00,64.3,61.9,30.01,NW,306,0.0,0.0,92,0.00,,---,0.28,0.00,VWS V14.00,2013-01-22 01:00:00,
2013-01-21 20:30:00,63.8,61.4,30.02,NW,306,0.0,1.0,92,0.00,,---,0.28,0.00,VWS V14.00,2013-01-22 01:30:00,
2013-01-21 21:00:00,63.2,60.8,30.02,NW,306,0.0,2.0,92,0.00,,---,0.28,0.00,VWS V14.00,2013-01-22 02:00:00,
2013-01-21 21:30:00,62.9,60.5,30.03,WNW,301,1.0,5.0,92,0.00,,---,0.28,0.00,VWS V14.00,2013-01-22 02:30:00,
2013-01-21 22:00:00,62.7,60.3,30.03,WNW,301,0.0,5.0,92,0.00,,---,0.28,0.00,VWS V14.00,2013-01-22 03:00:00,
2013-01-21 22:30:00,62.3,60.0,30.04,WNW,301,0.0,3.0,92,0.00,,---,0.28,0.00,VWS V14.00,2013-01-22 03:30:00,
2013-01-21 23:00:00,62.0,59.7,30.04,WNW,300,0.0,3.0,92,0.00,,---,0.28,0.00,VWS V14.00,2013-01-22 04:00:00,
2013-01-21 23:30:00,61.5,59.2,30.04,WNW,301,0.0,3.0,92,0.00,,---,0.28,0.00,VWS V14.00,2013-01-22 04:30:00,